sensor_id;sensor_type;location;lat;lon;timestamp;temperature;humidity
23377;DHT22;14353;46.070;13.222;2023-07-09T00:02:10;30.20;48.10
23377;DHT22;14353;46.070;13.222;2023-07-09T00:04:36;30.20;48.10
23377;DHT22;14353;46.070;13.222;2023-07-09T00:07:03;30.20;48.10
23377;DHT22;14353;46.070;13.222;2023-07-09T00:09:29;30.10;48.10
23377;DHT22;14353;46.070;13.222;2023-07-09T00:11:55;30.20;48.10
23377;DHT22;14353;46.070;13.222;2023-07-09T00:14:21;30.20;48.20
23377;DHT22;14353;46.070;13.222;2023-07-09T00:16:47;30.20;48.10
23377;DHT22;14353;46.070;13.222;2023-07-09T00:19:18;30.20;48.10
23377;DHT22;14353;46.070;13.222;2023-07-09T00:21:45;30.20;48.20
23377;DHT22;14353;46.070;13.222;2023-07-09T00:24:12;30.10;48.10
23377;DHT22;14353;46.070;13.222;2023-07-09T00:26:38;30.20;48.20
23377;DHT22;14353;46.070;13.222;2023-07-09T00:29:10;30.20;48.20
23377;DHT22;14353;46.070;13.222;2023-07-09T00:31:37;30.20;48.20
23377;DHT22;14353;46.070;13.222;2023-07-09T00:34:10;30.20;48.20
23377;DHT22;14353;46.070;13.222;2023-07-09T00:36:39;30.20;48.20
23377;DHT22;14353;46.070;13.222;2023-07-09T00:39:19;30.10;48.10
23377;DHT22;14353;46.070;13.222;2023-07-09T00:41:46;30.10;48.20
23377;DHT22;14353;46.070;13.222;2023-07-09T00:44:30;30.10;48.20
23377;DHT22;14353;46.070;13.222;2023-07-09T00:49:31;30.10;48.20
23377;DHT22;14353;46.070;13.222;2023-07-09T00:52:01;30.10;48.20
23377;DHT22;14353;46.070;13.222;2023-07-09T00:54:36;30.10;48.30
23377;DHT22;14353;46.070;13.222;2023-07-09T00:57:08;30.10;48.30
23377;DHT22;14353;46.070;13.222;2023-07-09T00:59:36;30.10;48.30
23377;DHT22;14353;46.070;13.222;2023-07-09T01:02:02;30.10;48.30
23377;DHT22;14353;46.070;13.222;2023-07-09T01:04:28;30.10;48.30
23377;DHT22;14353;46.070;13.222;2023-07-09T01:06:56;30.10;48.30
23377;DHT22;14353;46.070;13.222;2023-07-09T01:09:23;30.10;48.30
23377;DHT22;14353;46.070;13.222;2023-07-09T01:11:49;30.10;48.30
23377;DHT22;14353;46.070;13.222;2023-07-09T01:14:19;30.10;48.40
23377;DHT22;14353;46.070;13.222;2023-07-09T01:16:50;30.10;48.40
23377;DHT22;14353;46.070;13.222;2023-07-09T01:19:28;30.10;48.40
23377;DHT22;14353;46.070;13.222;2023-07-09T01:21:59;30.10;48.40
23377;DHT22;14353;46.070;13.222;2023-07-09T01:24:51;30.10;48.40
23377;DHT22;14353;46.070;13.222;2023-07-09T01:27:42;30.00;48.40
23377;DHT22;14353;46.070;13.222;2023-07-09T01:30:09;30.10;48.50
23377;DHT22;14353;46.070;13.222;2023-07-09T01:32:37;30.10;48.50
23377;DHT22;14353;46.070;13.222;2023-07-09T01:35:04;30.10;48.50
23377;DHT22;14353;46.070;13.222;2023-07-09T01:37:35;30.00;48.40
23377;DHT22;14353;46.070;13.222;2023-07-09T01:40:01;30.00;48.50
23377;DHT22;14353;46.070;13.222;2023-07-09T01:42:30;30.00;48.40
23377;DHT22;14353;46.070;13.222;2023-07-09T01:44:56;30.00;48.50
23377;DHT22;14353;46.070;13.222;2023-07-09T01:47:22;30.00;48.50
23377;DHT22;14353;46.070;13.222;2023-07-09T01:49:50;30.00;48.50
23377;DHT22;14353;46.070;13.222;2023-07-09T01:52:16;30.00;48.50
23377;DHT22;14353;46.070;13.222;2023-07-09T01:54:45;30.00;48.50
23377;DHT22;14353;46.070;13.222;2023-07-09T01:57:23;30.00;48.50
23377;DHT22;14353;46.070;13.222;2023-07-09T01:59:54;30.00;48.60
23377;DHT22;14353;46.070;13.222;2023-07-09T02:02:21;30.00;48.60
23377;DHT22;14353;46.070;13.222;2023-07-09T02:04:52;29.90;48.50
23377;DHT22;14353;46.070;13.222;2023-07-09T02:07:19;29.90;48.50
23377;DHT22;14353;46.070;13.222;2023-07-09T02:09:45;29.90;48.50
23377;DHT22;14353;46.070;13.222;2023-07-09T02:12:12;29.90;48.60
23377;DHT22;14353;46.070;13.222;2023-07-09T02:14:38;29.90;48.60
23377;DHT22;14353;46.070;13.222;2023-07-09T02:17:04;29.90;48.60
23377;DHT22;14353;46.070;13.222;2023-07-09T02:19:30;29.90;48.70
23377;DHT22;14353;46.070;13.222;2023-07-09T02:21:56;29.90;48.60
23377;DHT22;14353;46.070;13.222;2023-07-09T02:24:23;29.90;48.60
23377;DHT22;14353;46.070;13.222;2023-07-09T02:26:56;29.90;48.70
23377;DHT22;14353;46.070;13.222;2023-07-09T02:29:23;29.90;48.70
23377;DHT22;14353;46.070;13.222;2023-07-09T02:31:50;29.90;48.70
23377;DHT22;14353;46.070;13.222;2023-07-09T02:34:16;29.90;48.70
23377;DHT22;14353;46.070;13.222;2023-07-09T02:36:42;29.90;48.70
23377;DHT22;14353;46.070;13.222;2023-07-09T02:39:13;29.90;48.70
23377;DHT22;14353;46.070;13.222;2023-07-09T02:41:40;29.90;48.80
23377;DHT22;14353;46.070;13.222;2023-07-09T02:44:06;29.90;48.80
23377;DHT22;14353;46.070;13.222;2023-07-09T02:46:32;29.90;48.80
23377;DHT22;14353;46.070;13.222;2023-07-09T02:48:58;29.90;48.80
23377;DHT22;14353;46.070;13.222;2023-07-09T02:51:24;29.90;48.80
23377;DHT22;14353;46.070;13.222;2023-07-09T02:53:54;29.90;48.80
23377;DHT22;14353;46.070;13.222;2023-07-09T02:56:20;29.90;48.80
23377;DHT22;14353;46.070;13.222;2023-07-09T02:58:45;29.90;48.80
23377;DHT22;14353;46.070;13.222;2023-07-09T03:01:11;29.80;48.70
23377;DHT22;14353;46.070;13.222;2023-07-09T03:03:38;29.80;48.70
23377;DHT22;14353;46.070;13.222;2023-07-09T03:06:04;29.80;48.80
23377;DHT22;14353;46.070;13.222;2023-07-09T03:08:30;29.80;48.80
23377;DHT22;14353;46.070;13.222;2023-07-09T03:10:56;29.80;48.80
23377;DHT22;14353;46.070;13.222;2023-07-09T03:13:22;29.80;48.80
23377;DHT22;14353;46.070;13.222;2023-07-09T03:15:57;29.80;48.80
23377;DHT22;14353;46.070;13.222;2023-07-09T03:18:24;29.80;48.80
23377;DHT22;14353;46.070;13.222;2023-07-09T03:20:50;29.80;48.90
23377;DHT22;14353;46.070;13.222;2023-07-09T03:23:16;29.80;48.90
23377;DHT22;14353;46.070;13.222;2023-07-09T03:25:43;29.80;48.90
23377;DHT22;14353;46.070;13.222;2023-07-09T03:28:09;29.80;48.90
23377;DHT22;14353;46.070;13.222;2023-07-09T03:30:39;29.80;48.90
23377;DHT22;14353;46.070;13.222;2023-07-09T03:33:04;29.80;48.90
23377;DHT22;14353;46.070;13.222;2023-07-09T03:35:30;29.80;49.00
23377;DHT22;14353;46.070;13.222;2023-07-09T03:37:56;29.80;49.00
23377;DHT22;14353;46.070;13.222;2023-07-09T03:40:22;29.80;49.00
23377;DHT22;14353;46.070;13.222;2023-07-09T03:42:49;29.80;49.00
23377;DHT22;14353;46.070;13.222;2023-07-09T03:45:15;29.80;49.00
23377;DHT22;14353;46.070;13.222;2023-07-09T03:47:40;29.80;49.00
23377;DHT22;14353;46.070;13.222;2023-07-09T03:50:07;29.80;49.70
23377;DHT22;14353;46.070;13.222;2023-07-09T03:52:37;29.80;49.00
23377;DHT22;14353;46.070;13.222;2023-07-09T03:55:03;29.80;49.00
23377;DHT22;14353;46.070;13.222;2023-07-09T03:57:33;29.80;49.00
23377;DHT22;14353;46.070;13.222;2023-07-09T03:59:59;29.80;49.00
23377;DHT22;14353;46.070;13.222;2023-07-09T04:02:25;29.80;49.00
23377;DHT22;14353;46.070;13.222;2023-07-09T04:04:50;29.80;49.00
23377;DHT22;14353;46.070;13.222;2023-07-09T04:07:16;29.80;49.00
23377;DHT22;14353;46.070;13.222;2023-07-09T04:09:42;29.80;49.00
23377;DHT22;14353;46.070;13.222;2023-07-09T04:12:09;29.80;49.00
23377;DHT22;14353;46.070;13.222;2023-07-09T04:14:35;29.80;49.00
23377;DHT22;14353;46.070;13.222;2023-07-09T04:17:01;29.80;49.00
23377;DHT22;14353;46.070;13.222;2023-07-09T04:19:27;29.70;49.00
23377;DHT22;14353;46.070;13.222;2023-07-09T04:21:52;29.80;49.00
23377;DHT22;14353;46.070;13.222;2023-07-09T04:24:19;29.80;49.00
23377;DHT22;14353;46.070;13.222;2023-07-09T04:26:46;29.80;49.00
23377;DHT22;14353;46.070;13.222;2023-07-09T04:29:12;29.80;49.00
23377;DHT22;14353;46.070;13.222;2023-07-09T04:31:38;29.80;49.00
23377;DHT22;14353;46.070;13.222;2023-07-09T04:34:04;29.80;49.00
23377;DHT22;14353;46.070;13.222;2023-07-09T04:36:30;29.80;49.00
23377;DHT22;14353;46.070;13.222;2023-07-09T04:38:57;29.80;49.00
23377;DHT22;14353;46.070;13.222;2023-07-09T04:41:23;29.80;49.00
23377;DHT22;14353;46.070;13.222;2023-07-09T04:43:49;29.80;49.00
23377;DHT22;14353;46.070;13.222;2023-07-09T04:46:15;29.80;49.00
23377;DHT22;14353;46.070;13.222;2023-07-09T04:48:40;29.80;49.00
23377;DHT22;14353;46.070;13.222;2023-07-09T04:51:06;29.80;48.90
23377;DHT22;14353;46.070;13.222;2023-07-09T04:53:32;29.80;48.90
23377;DHT22;14353;46.070;13.222;2023-07-09T04:55:58;29.80;48.90
23377;DHT22;14353;46.070;13.222;2023-07-09T04:58:23;29.80;48.90
23377;DHT22;14353;46.070;13.222;2023-07-09T05:00:49;29.80;48.90
23377;DHT22;14353;46.070;13.222;2023-07-09T05:03:18;29.80;48.90
23377;DHT22;14353;46.070;13.222;2023-07-09T05:05:45;29.80;48.90
23377;DHT22;14353;46.070;13.222;2023-07-09T05:08:12;29.80;48.90
23377;DHT22;14353;46.070;13.222;2023-07-09T05:10:46;29.80;48.80
23377;DHT22;14353;46.070;13.222;2023-07-09T05:13:12;29.80;48.80
23377;DHT22;14353;46.070;13.222;2023-07-09T05:15:43;29.80;48.80
23377;DHT22;14353;46.070;13.222;2023-07-09T05:18:10;29.80;48.80
23377;DHT22;14353;46.070;13.222;2023-07-09T05:20:36;29.90;48.80
23377;DHT22;14353;46.070;13.222;2023-07-09T05:23:02;29.80;48.80
23377;DHT22;14353;46.070;13.222;2023-07-09T05:25:28;29.80;48.80
23377;DHT22;14353;46.070;13.222;2023-07-09T05:27:54;29.90;48.80
23377;DHT22;14353;46.070;13.222;2023-07-09T05:30:20;29.80;48.80
23377;DHT22;14353;46.070;13.222;2023-07-09T05:32:46;29.90;48.80
23377;DHT22;14353;46.070;13.222;2023-07-09T05:35:12;29.90;48.80
23377;DHT22;14353;46.070;13.222;2023-07-09T05:37:38;29.90;48.80
23377;DHT22;14353;46.070;13.222;2023-07-09T05:40:06;29.80;48.70
23377;DHT22;14353;46.070;13.222;2023-07-09T05:42:32;29.90;48.80
23377;DHT22;14353;46.070;13.222;2023-07-09T05:44:58;29.90;48.80
23377;DHT22;14353;46.070;13.222;2023-07-09T05:47:25;29.90;48.80
23377;DHT22;14353;46.070;13.222;2023-07-09T05:49:51;29.90;48.80
23377;DHT22;14353;46.070;13.222;2023-07-09T05:52:19;29.90;48.70
23377;DHT22;14353;46.070;13.222;2023-07-09T05:54:45;29.90;48.80
23377;DHT22;14353;46.070;13.222;2023-07-09T05:57:11;29.90;48.70
23377;DHT22;14353;46.070;13.222;2023-07-09T05:59:37;29.90;48.70
23377;DHT22;14353;46.070;13.222;2023-07-09T06:02:03;29.90;48.70
23377;DHT22;14353;46.070;13.222;2023-07-09T06:04:29;29.90;48.60
23377;DHT22;14353;46.070;13.222;2023-07-09T06:06:56;29.90;48.60
23377;DHT22;14353;46.070;13.222;2023-07-09T06:09:25;29.90;48.60
23377;DHT22;14353;46.070;13.222;2023-07-09T06:11:51;29.90;48.60
23377;DHT22;14353;46.070;13.222;2023-07-09T06:14:18;29.90;48.60
23377;DHT22;14353;46.070;13.222;2023-07-09T06:16:44;29.90;48.60
23377;DHT22;14353;46.070;13.222;2023-07-09T06:19:09;30.00;48.70
23377;DHT22;14353;46.070;13.222;2023-07-09T06:21:35;30.00;48.70
23377;DHT22;14353;46.070;13.222;2023-07-09T06:24:01;30.00;48.60
23377;DHT22;14353;46.070;13.222;2023-07-09T06:26:27;30.00;48.70
23377;DHT22;14353;46.070;13.222;2023-07-09T06:28:52;30.00;48.60
23377;DHT22;14353;46.070;13.222;2023-07-09T06:31:18;30.00;48.60
23377;DHT22;14353;46.070;13.222;2023-07-09T06:33:47;30.00;48.50
23377;DHT22;14353;46.070;13.222;2023-07-09T06:36:13;30.00;48.50
23377;DHT22;14353;46.070;13.222;2023-07-09T06:38:39;30.00;48.50
23377;DHT22;14353;46.070;13.222;2023-07-09T06:41:04;30.00;48.50
23377;DHT22;14353;46.070;13.222;2023-07-09T06:43:30;30.00;48.50
23377;DHT22;14353;46.070;13.222;2023-07-09T06:45:59;30.00;48.40
23377;DHT22;14353;46.070;13.222;2023-07-09T06:48:27;30.00;48.40
23377;DHT22;14353;46.070;13.222;2023-07-09T06:50:54;30.10;48.50
23377;DHT22;14353;46.070;13.222;2023-07-09T06:53:21;30.10;48.50
23377;DHT22;14353;46.070;13.222;2023-07-09T06:55:47;30.10;48.50
23377;DHT22;14353;46.070;13.222;2023-07-09T06:58:15;30.10;48.50
23377;DHT22;14353;46.070;13.222;2023-07-09T07:00:41;30.10;48.40
23377;DHT22;14353;46.070;13.222;2023-07-09T07:03:08;30.10;48.40
23377;DHT22;14353;46.070;13.222;2023-07-09T07:05:34;30.10;48.40
23377;DHT22;14353;46.070;13.222;2023-07-09T07:08:02;30.10;48.40
23377;DHT22;14353;46.070;13.222;2023-07-09T07:10:28;30.10;48.30
23377;DHT22;14353;46.070;13.222;2023-07-09T07:12:55;30.10;48.30
23377;DHT22;14353;46.070;13.222;2023-07-09T07:15:21;30.10;48.30
23377;DHT22;14353;46.070;13.222;2023-07-09T07:17:48;30.10;48.20
23377;DHT22;14353;46.070;13.222;2023-07-09T07:20:14;30.20;48.30
23377;DHT22;14353;46.070;13.222;2023-07-09T07:22:41;30.20;48.30
23377;DHT22;14353;46.070;13.222;2023-07-09T07:25:08;30.20;48.90
23377;DHT22;14353;46.070;13.222;2023-07-09T07:27:34;30.10;48.10
23377;DHT22;14353;46.070;13.222;2023-07-09T07:30:00;30.20;48.20
23377;DHT22;14353;46.070;13.222;2023-07-09T07:32:26;30.20;48.20
23377;DHT22;14353;46.070;13.222;2023-07-09T07:34:52;30.20;48.10
23377;DHT22;14353;46.070;13.222;2023-07-09T07:37:20;30.20;48.10
23377;DHT22;14353;46.070;13.222;2023-07-09T07:39:47;30.20;48.10
23377;DHT22;14353;46.070;13.222;2023-07-09T07:42:12;30.20;48.70
23377;DHT22;14353;46.070;13.222;2023-07-09T07:44:38;30.20;48.00
23377;DHT22;14353;46.070;13.222;2023-07-09T07:47:04;30.20;47.90
23377;DHT22;14353;46.070;13.222;2023-07-09T07:49:30;30.20;48.00
23377;DHT22;14353;46.070;13.222;2023-07-09T07:51:56;30.20;47.90
23377;DHT22;14353;46.070;13.222;2023-07-09T07:54:22;30.30;48.00
23377;DHT22;14353;46.070;13.222;2023-07-09T07:56:47;30.30;48.00
23377;DHT22;14353;46.070;13.222;2023-07-09T07:59:13;30.30;48.00
23377;DHT22;14353;46.070;13.222;2023-07-09T08:01:40;30.30;48.00
23377;DHT22;14353;46.070;13.222;2023-07-09T08:04:06;30.30;47.90
23377;DHT22;14353;46.070;13.222;2023-07-09T08:06:31;30.30;47.90
23377;DHT22;14353;46.070;13.222;2023-07-09T08:08:58;30.30;47.90
23377;DHT22;14353;46.070;13.222;2023-07-09T08:11:24;30.30;47.90
23377;DHT22;14353;46.070;13.222;2023-07-09T08:13:50;30.30;47.90
23377;DHT22;14353;46.070;13.222;2023-07-09T08:16:16;30.30;47.90
23377;DHT22;14353;46.070;13.222;2023-07-09T08:18:42;30.30;47.90
23377;DHT22;14353;46.070;13.222;2023-07-09T08:21:08;30.30;47.80
23377;DHT22;14353;46.070;13.222;2023-07-09T08:23:34;30.30;47.80
23377;DHT22;14353;46.070;13.222;2023-07-09T08:26:02;30.30;47.80
23377;DHT22;14353;46.070;13.222;2023-07-09T08:28:29;30.30;47.80
23377;DHT22;14353;46.070;13.222;2023-07-09T08:30:55;30.30;47.90
23377;DHT22;14353;46.070;13.222;2023-07-09T08:33:21;30.30;47.80
23377;DHT22;14353;46.070;13.222;2023-07-09T08:35:49;30.40;47.90
23377;DHT22;14353;46.070;13.222;2023-07-09T08:38:16;30.40;47.90
23377;DHT22;14353;46.070;13.222;2023-07-09T08:40:58;30.40;47.80
23377;DHT22;14353;46.070;13.222;2023-07-09T08:43:34;30.40;47.90
23377;DHT22;14353;46.070;13.222;2023-07-09T08:48:44;30.40;47.80
23377;DHT22;14353;46.070;13.222;2023-07-09T08:51:34;30.40;47.80
23377;DHT22;14353;46.070;13.222;2023-07-09T08:54:00;30.40;47.80
23377;DHT22;14353;46.070;13.222;2023-07-09T08:56:29;30.40;47.70
23377;DHT22;14353;46.070;13.222;2023-07-09T08:58:58;30.40;47.70
23377;DHT22;14353;46.070;13.222;2023-07-09T09:01:40;30.50;47.80
23377;DHT22;14353;46.070;13.222;2023-07-09T09:04:22;30.40;47.70
23377;DHT22;14353;46.070;13.222;2023-07-09T09:09:36;30.50;47.70
23377;DHT22;14353;46.070;13.222;2023-07-09T09:14:56;30.50;47.70
23377;DHT22;14353;46.070;13.222;2023-07-09T09:17:24;30.50;47.70
23377;DHT22;14353;46.070;13.222;2023-07-09T09:20:01;30.50;47.70
23377;DHT22;14353;46.070;13.222;2023-07-09T09:22:52;30.50;47.70
23377;DHT22;14353;46.070;13.222;2023-07-09T09:25:30;30.50;47.70
23377;DHT22;14353;46.070;13.222;2023-07-09T09:27:59;30.50;47.70
23377;DHT22;14353;46.070;13.222;2023-07-09T09:30:25;30.50;47.70
23377;DHT22;14353;46.070;13.222;2023-07-09T09:32:58;30.50;47.70
23377;DHT22;14353;46.070;13.222;2023-07-09T09:35:30;30.50;47.60
23377;DHT22;14353;46.070;13.222;2023-07-09T09:37:57;30.50;47.60
23377;DHT22;14353;46.070;13.222;2023-07-09T09:40:24;30.50;47.60
23377;DHT22;14353;46.070;13.222;2023-07-09T09:42:52;30.50;47.60
23377;DHT22;14353;46.070;13.222;2023-07-09T09:45:24;30.50;47.60
23377;DHT22;14353;46.070;13.222;2023-07-09T09:47:51;30.50;47.60
23377;DHT22;14353;46.070;13.222;2023-07-09T09:50:19;30.50;47.50
23377;DHT22;14353;46.070;13.222;2023-07-09T09:52:45;30.50;47.50
23377;DHT22;14353;46.070;13.222;2023-07-09T09:55:20;30.60;47.60
23377;DHT22;14353;46.070;13.222;2023-07-09T09:57:53;30.50;47.50
23377;DHT22;14353;46.070;13.222;2023-07-09T10:00:22;30.60;47.50
23377;DHT22;14353;46.070;13.222;2023-07-09T10:02:50;30.50;47.40
23377;DHT22;14353;46.070;13.222;2023-07-09T10:05:30;30.60;47.50
23377;DHT22;14353;46.070;13.222;2023-07-09T10:08:11;30.60;47.50
23377;DHT22;14353;46.070;13.222;2023-07-09T10:10:42;30.60;47.50
23377;DHT22;14353;46.070;13.222;2023-07-09T10:13:23;30.60;47.50
23377;DHT22;14353;46.070;13.222;2023-07-09T10:16:05;30.60;47.50
23377;DHT22;14353;46.070;13.222;2023-07-09T10:21:47;30.60;48.10
23377;DHT22;14353;46.070;13.222;2023-07-09T10:27:17;30.60;47.40
23377;DHT22;14353;46.070;13.222;2023-07-09T10:32:35;30.70;47.40
23377;DHT22;14353;46.070;13.222;2023-07-09T10:40:49;30.70;47.40
23377;DHT22;14353;46.070;13.222;2023-07-09T10:43:42;30.70;47.40
23377;DHT22;14353;46.070;13.222;2023-07-09T10:46:18;30.70;47.40
23377;DHT22;14353;46.070;13.222;2023-07-09T10:48:51;30.70;47.40
23377;DHT22;14353;46.070;13.222;2023-07-09T10:51:33;30.70;47.40
23377;DHT22;14353;46.070;13.222;2023-07-09T10:56:39;30.70;47.30
23377;DHT22;14353;46.070;13.222;2023-07-09T10:59:28;30.70;47.30
23377;DHT22;14353;46.070;13.222;2023-07-09T11:04:48;30.70;47.30
23377;DHT22;14353;46.070;13.222;2023-07-09T11:07:26;30.80;47.30
23377;DHT22;14353;46.070;13.222;2023-07-09T11:09:53;30.80;47.30
23377;DHT22;14353;46.070;13.222;2023-07-09T11:14:59;30.80;47.30
23377;DHT22;14353;46.070;13.222;2023-07-09T11:17:28;30.80;47.40
23377;DHT22;14353;46.070;13.222;2023-07-09T11:19:56;30.80;47.30
23377;DHT22;14353;46.070;13.222;2023-07-09T11:22:27;30.80;47.30
23377;DHT22;14353;46.070;13.222;2023-07-09T11:25:14;30.80;47.90
23377;DHT22;14353;46.070;13.222;2023-07-09T11:28:05;30.80;47.30
23377;DHT22;14353;46.070;13.222;2023-07-09T11:30:32;30.80;47.20
23377;DHT22;14353;46.070;13.222;2023-07-09T11:33:03;30.90;47.30
23377;DHT22;14353;46.070;13.222;2023-07-09T11:35:45;30.80;47.20
23377;DHT22;14353;46.070;13.222;2023-07-09T11:38:24;30.80;47.20
23377;DHT22;14353;46.070;13.222;2023-07-09T11:40:54;30.90;47.20
23377;DHT22;14353;46.070;13.222;2023-07-09T11:43:47;30.90;47.30
23377;DHT22;14353;46.070;13.222;2023-07-09T11:46:25;30.90;47.30
23377;DHT22;14353;46.070;13.222;2023-07-09T11:48:55;30.90;47.30
23377;DHT22;14353;46.070;13.222;2023-07-09T11:51:33;30.90;47.20
23377;DHT22;14353;46.070;13.222;2023-07-09T11:54:00;30.90;47.20
23377;DHT22;14353;46.070;13.222;2023-07-09T11:56:26;30.90;47.20
23377;DHT22;14353;46.070;13.222;2023-07-09T11:58:54;30.90;47.20
23377;DHT22;14353;46.070;13.222;2023-07-09T12:01:43;31.00;47.20
23377;DHT22;14353;46.070;13.222;2023-07-09T12:04:17;30.90;47.10
23377;DHT22;14353;46.070;13.222;2023-07-09T12:06:45;31.00;47.10
23377;DHT22;14353;46.070;13.222;2023-07-09T12:09:16;31.00;47.00
23377;DHT22;14353;46.070;13.222;2023-07-09T12:11:45;31.00;47.10
23377;DHT22;14353;46.070;13.222;2023-07-09T12:14:13;31.00;47.00
23377;DHT22;14353;46.070;13.222;2023-07-09T12:16:43;31.00;47.00
23377;DHT22;14353;46.070;13.222;2023-07-09T12:19:16;31.00;47.00
23377;DHT22;14353;46.070;13.222;2023-07-09T12:21:46;31.00;47.00
23377;DHT22;14353;46.070;13.222;2023-07-09T12:24:27;31.10;47.00
23377;DHT22;14353;46.070;13.222;2023-07-09T12:27:01;31.10;46.90
23377;DHT22;14353;46.070;13.222;2023-07-09T12:29:27;31.10;46.90
23377;DHT22;14353;46.070;13.222;2023-07-09T12:31:53;31.10;46.90
23377;DHT22;14353;46.070;13.222;2023-07-09T12:34:21;31.20;47.00
23377;DHT22;14353;46.070;13.222;2023-07-09T12:36:49;31.20;47.00
23377;DHT22;14353;46.070;13.222;2023-07-09T12:39:18;31.20;46.90
23377;DHT22;14353;46.070;13.222;2023-07-09T12:41:45;31.20;46.90
23377;DHT22;14353;46.070;13.222;2023-07-09T12:44:16;31.20;46.90
23377;DHT22;14353;46.070;13.222;2023-07-09T12:46:43;31.20;46.90
23377;DHT22;14353;46.070;13.222;2023-07-09T12:49:20;31.20;46.90
23377;DHT22;14353;46.070;13.222;2023-07-09T12:51:46;31.20;46.80
23377;DHT22;14353;46.070;13.222;2023-07-09T12:54:17;31.20;46.70
23377;DHT22;14353;46.070;13.222;2023-07-09T12:56:45;31.30;46.80
23377;DHT22;14353;46.070;13.222;2023-07-09T12:59:38;31.30;46.80
23377;DHT22;14353;46.070;13.222;2023-07-09T13:02:26;31.30;46.80
23377;DHT22;14353;46.070;13.222;2023-07-09T13:05:05;31.30;46.70
23377;DHT22;14353;46.070;13.222;2023-07-09T13:07:34;31.40;46.80
23377;DHT22;14353;46.070;13.222;2023-07-09T13:10:15;31.40;46.80
23377;DHT22;14353;46.070;13.222;2023-07-09T13:12:41;31.40;46.70
23377;DHT22;14353;46.070;13.222;2023-07-09T13:15:38;31.40;46.70
23377;DHT22;14353;46.070;13.222;2023-07-09T13:18:05;31.40;46.70
23377;DHT22;14353;46.070;13.222;2023-07-09T13:20:33;31.40;46.70
23377;DHT22;14353;46.070;13.222;2023-07-09T13:23:00;31.50;46.80
23377;DHT22;14353;46.070;13.222;2023-07-09T13:25:26;31.40;46.70
23377;DHT22;14353;46.070;13.222;2023-07-09T13:27:53;31.40;46.60
23377;DHT22;14353;46.070;13.222;2023-07-09T13:30:19;31.50;46.70
23377;DHT22;14353;46.070;13.222;2023-07-09T13:32:45;31.50;46.70
23377;DHT22;14353;46.070;13.222;2023-07-09T13:35:17;31.50;46.60
23377;DHT22;14353;46.070;13.222;2023-07-09T13:37:46;31.50;46.70
23377;DHT22;14353;46.070;13.222;2023-07-09T13:40:16;31.50;46.60
23377;DHT22;14353;46.070;13.222;2023-07-09T13:42:43;31.50;46.60
23377;DHT22;14353;46.070;13.222;2023-07-09T13:45:24;31.50;46.60
23377;DHT22;14353;46.070;13.222;2023-07-09T13:47:53;31.50;46.50
23377;DHT22;14353;46.070;13.222;2023-07-09T13:50:20;31.60;46.60
23377;DHT22;14353;46.070;13.222;2023-07-09T13:52:46;31.60;46.60
23377;DHT22;14353;46.070;13.222;2023-07-09T13:55:23;31.60;46.60
23377;DHT22;14353;46.070;13.222;2023-07-09T13:57:49;31.60;46.60
23377;DHT22;14353;46.070;13.222;2023-07-09T14:00:15;31.60;47.20
23377;DHT22;14353;46.070;13.222;2023-07-09T14:02:46;31.60;46.60
23377;DHT22;14353;46.070;13.222;2023-07-09T14:05:13;31.70;46.60
23377;DHT22;14353;46.070;13.222;2023-07-09T14:07:41;31.70;46.60
23377;DHT22;14353;46.070;13.222;2023-07-09T14:10:11;31.70;46.50
23377;DHT22;14353;46.070;13.222;2023-07-09T14:12:40;31.70;46.50
23377;DHT22;14353;46.070;13.222;2023-07-09T14:15:16;31.70;46.40
23377;DHT22;14353;46.070;13.222;2023-07-09T14:17:42;31.70;46.40
23377;DHT22;14353;46.070;13.222;2023-07-09T14:20:13;31.70;46.40
23377;DHT22;14353;46.070;13.222;2023-07-09T14:22:40;31.70;46.40
23377;DHT22;14353;46.070;13.222;2023-07-09T14:25:20;31.80;46.40
23377;DHT22;14353;46.070;13.222;2023-07-09T14:27:46;31.80;46.40
23377;DHT22;14353;46.070;13.222;2023-07-09T14:30:17;31.80;46.40
23377;DHT22;14353;46.070;13.222;2023-07-09T14:32:45;31.80;46.40
23377;DHT22;14353;46.070;13.222;2023-07-09T14:35:17;31.80;46.40
23377;DHT22;14353;46.070;13.222;2023-07-09T14:37:48;31.80;46.30
23377;DHT22;14353;46.070;13.222;2023-07-09T14:40:15;31.80;46.30
23377;DHT22;14353;46.070;13.222;2023-07-09T14:42:42;31.80;46.40
23377;DHT22;14353;46.070;13.222;2023-07-09T14:47:42;31.90;46.40
23377;DHT22;14353;46.070;13.222;2023-07-09T14:50:08;31.90;47.00
23377;DHT22;14353;46.070;13.222;2023-07-09T14:52:35;31.90;46.30
23377;DHT22;14353;46.070;13.222;2023-07-09T14:55:01;31.90;46.30
23377;DHT22;14353;46.070;13.222;2023-07-09T14:57:27;31.90;46.30
23377;DHT22;14353;46.070;13.222;2023-07-09T14:59:56;31.90;46.30
23377;DHT22;14353;46.070;13.222;2023-07-09T15:02:37;31.90;46.20
23377;DHT22;14353;46.070;13.222;2023-07-09T15:05:04;32.00;46.30
23377;DHT22;14353;46.070;13.222;2023-07-09T15:07:31;32.00;46.30
23377;DHT22;14353;46.070;13.222;2023-07-09T15:09:58;32.00;46.20
23377;DHT22;14353;46.070;13.222;2023-07-09T15:12:31;32.00;46.20
23377;DHT22;14353;46.070;13.222;2023-07-09T15:15:12;32.00;46.20
23377;DHT22;14353;46.070;13.222;2023-07-09T15:17:38;32.00;46.20
23377;DHT22;14353;46.070;13.222;2023-07-09T15:20:04;32.00;46.20
23377;DHT22;14353;46.070;13.222;2023-07-09T15:22:34;32.00;46.20
23377;DHT22;14353;46.070;13.222;2023-07-09T15:25:00;32.00;46.20
23377;DHT22;14353;46.070;13.222;2023-07-09T15:27:27;32.00;46.20
23377;DHT22;14353;46.070;13.222;2023-07-09T15:29:53;32.10;46.20
23377;DHT22;14353;46.070;13.222;2023-07-09T15:32:20;32.00;46.10
23377;DHT22;14353;46.070;13.222;2023-07-09T15:34:45;32.10;46.20
23377;DHT22;14353;46.070;13.222;2023-07-09T15:37:14;32.10;46.20
23377;DHT22;14353;46.070;13.222;2023-07-09T15:39:41;32.10;46.20
23377;DHT22;14353;46.070;13.222;2023-07-09T15:42:14;32.10;46.20
23377;DHT22;14353;46.070;13.222;2023-07-09T15:44:40;32.10;46.10
23377;DHT22;14353;46.070;13.222;2023-07-09T15:47:17;32.10;46.20
23377;DHT22;14353;46.070;13.222;2023-07-09T15:49:44;32.10;46.20
23377;DHT22;14353;46.070;13.222;2023-07-09T15:52:10;32.10;46.20
23377;DHT22;14353;46.070;13.222;2023-07-09T15:54:36;32.10;46.10
23377;DHT22;14353;46.070;13.222;2023-07-09T15:57:02;32.20;46.40
23377;DHT22;14353;46.070;13.222;2023-07-09T15:59:33;32.20;46.10
23377;DHT22;14353;46.070;13.222;2023-07-09T16:02:00;32.20;46.10
23377;DHT22;14353;46.070;13.222;2023-07-09T16:04:27;32.20;46.10